sensor_id;sensor_type;location;lat;lon;timestamp;temperature;humidity
12588;DHT22;6359;51.450;7.346;2022-09-20T00:02:17;7.60;99.90
12588;DHT22;6359;51.450;7.346;2022-09-20T00:04:47;7.60;99.90
12588;DHT22;6359;51.450;7.346;2022-09-20T00:07:14;7.60;99.90
12588;DHT22;6359;51.450;7.346;2022-09-20T00:09:40;7.70;99.90
12588;DHT22;6359;51.450;7.346;2022-09-20T00:12:09;7.80;99.90
12588;DHT22;6359;51.450;7.346;2022-09-20T00:14:35;7.90;99.90
12588;DHT22;6359;51.450;7.346;2022-09-20T00:17:02;7.90;99.90
12588;DHT22;6359;51.450;7.346;2022-09-20T00:19:29;7.80;99.90
12588;DHT22;6359;51.450;7.346;2022-09-20T00:21:56;7.90;99.90
12588;DHT22;6359;51.450;7.346;2022-09-20T00:24:23;7.90;99.90
12588;DHT22;6359;51.450;7.346;2022-09-20T00:26:50;7.90;99.90
12588;DHT22;6359;51.450;7.346;2022-09-20T00:29:18;7.90;99.90
12588;DHT22;6359;51.450;7.346;2022-09-20T00:31:45;8.00;99.90
12588;DHT22;6359;51.450;7.346;2022-09-20T00:34:12;8.00;99.90
12588;DHT22;6359;51.450;7.346;2022-09-20T00:36:56;8.00;99.90
12588;DHT22;6359;51.450;7.346;2022-09-20T00:39:24;8.00;99.90
12588;DHT22;6359;51.450;7.346;2022-09-20T00:41:50;8.00;99.90
12588;DHT22;6359;51.450;7.346;2022-09-20T00:44:42;8.10;99.90
12588;DHT22;6359;51.450;7.346;2022-09-20T00:47:13;8.10;99.90
12588;DHT22;6359;51.450;7.346;2022-09-20T00:49:41;8.10;99.90
12588;DHT22;6359;51.450;7.346;2022-09-20T00:52:09;8.20;99.90
12588;DHT22;6359;51.450;7.346;2022-09-20T00:54:36;8.20;99.90
12588;DHT22;6359;51.450;7.346;2022-09-20T00:57:03;8.10;99.90
12588;DHT22;6359;51.450;7.346;2022-09-20T00:59:32;8.00;99.90
12588;DHT22;6359;51.450;7.346;2022-09-20T01:02:05;7.90;99.90
12588;DHT22;6359;51.450;7.346;2022-09-20T01:04:33;7.80;99.90
12588;DHT22;6359;51.450;7.346;2022-09-20T01:07:03;7.80;99.90
12588;DHT22;6359;51.450;7.346;2022-09-20T01:09:31;7.80;99.90
12588;DHT22;6359;51.450;7.346;2022-09-20T01:12:02;7.80;99.90
12588;DHT22;6359;51.450;7.346;2022-09-20T01:14:30;7.80;99.90
12588;DHT22;6359;51.450;7.346;2022-09-20T01:17:03;7.70;99.90
12588;DHT22;6359;51.450;7.346;2022-09-20T01:19:41;7.70;99.90
12588;DHT22;6359;51.450;7.346;2022-09-20T01:22:19;7.70;99.90
12588;DHT22;6359;51.450;7.346;2022-09-20T01:24:51;7.80;99.90
12588;DHT22;6359;51.450;7.346;2022-09-20T01:27:34;7.80;99.90
12588;DHT22;6359;51.450;7.346;2022-09-20T01:30:06;7.80;99.90
12588;DHT22;6359;51.450;7.346;2022-09-20T01:32:43;7.80;99.90
12588;DHT22;6359;51.450;7.346;2022-09-20T01:35:11;7.60;99.90
12588;DHT22;6359;51.450;7.346;2022-09-20T01:37:49;7.60;99.90
12588;DHT22;6359;51.450;7.346;2022-09-20T01:40:25;7.50;99.90
12588;DHT22;6359;51.450;7.346;2022-09-20T01:43:00;7.30;99.90
12588;DHT22;6359;51.450;7.346;2022-09-20T01:45:30;7.30;99.90
12588;DHT22;6359;51.450;7.346;2022-09-20T01:48:03;7.40;99.90
12588;DHT22;6359;51.450;7.346;2022-09-20T01:50:36;7.30;99.90
12588;DHT22;6359;51.450;7.346;2022-09-20T01:53:22;7.30;99.90
12588;DHT22;6359;51.450;7.346;2022-09-20T01:56:30;7.10;99.90
12588;DHT22;6359;51.450;7.346;2022-09-20T01:59:11;7.00;99.90
12588;DHT22;6359;51.450;7.346;2022-09-20T02:02:04;7.00;99.90
12588;DHT22;6359;51.450;7.346;2022-09-20T02:08:02;7.20;99.90
12588;DHT22;6359;51.450;7.346;2022-09-20T02:13:28;7.30;99.90
12588;DHT22;6359;51.450;7.346;2022-09-20T02:16:15;7.40;99.90
12588;DHT22;6359;51.450;7.346;2022-09-20T02:19:06;7.50;99.90
12588;DHT22;6359;51.450;7.346;2022-09-20T02:21:38;7.60;99.90
12588;DHT22;6359;51.450;7.346;2022-09-20T02:24:17;7.70;99.90
12588;DHT22;6359;51.450;7.346;2022-09-20T02:27:01;7.60;99.90
12588;DHT22;6359;51.450;7.346;2022-09-20T02:29:35;7.50;99.90
12588;DHT22;6359;51.450;7.346;2022-09-20T02:32:19;7.40;99.90
12588;DHT22;6359;51.450;7.346;2022-09-20T02:35:18;7.30;99.90
12588;DHT22;6359;51.450;7.346;2022-09-20T02:37:58;7.20;99.90
12588;DHT22;6359;51.450;7.346;2022-09-20T02:40:39;7.20;99.90
12588;DHT22;6359;51.450;7.346;2022-09-20T02:43:15;7.20;99.90
12588;DHT22;6359;51.450;7.346;2022-09-20T02:45:47;7.20;99.90
12588;DHT22;6359;51.450;7.346;2022-09-20T02:48:22;7.20;99.90
12588;DHT22;6359;51.450;7.346;2022-09-20T02:50:55;7.20;99.90
12588;DHT22;6359;51.450;7.346;2022-09-20T02:53:33;7.20;99.90
12588;DHT22;6359;51.450;7.346;2022-09-20T02:56:09;7.20;99.90
12588;DHT22;6359;51.450;7.346;2022-09-20T02:58:50;7.20;99.90
12588;DHT22;6359;51.450;7.346;2022-09-20T03:01:30;7.20;99.90
12588;DHT22;6359;51.450;7.346;2022-09-20T03:04:10;7.30;99.90
12588;DHT22;6359;51.450;7.346;2022-09-20T03:06:42;7.20;99.90
12588;DHT22;6359;51.450;7.346;2022-09-20T03:09:18;7.10;99.90
12588;DHT22;6359;51.450;7.346;2022-09-20T03:11:58;7.10;99.90
12588;DHT22;6359;51.450;7.346;2022-09-20T03:14:32;7.00;99.90
12588;DHT22;6359;51.450;7.346;2022-09-20T03:17:07;7.10;99.90
12588;DHT22;6359;51.450;7.346;2022-09-20T03:19:47;7.10;99.90
12588;DHT22;6359;51.450;7.346;2022-09-20T03:22:27;7.20;99.90
12588;DHT22;6359;51.450;7.346;2022-09-20T03:25:12;7.30;99.90
12588;DHT22;6359;51.450;7.346;2022-09-20T03:27:51;7.40;99.90
12588;DHT22;6359;51.450;7.346;2022-09-20T03:30:35;7.50;99.90
12588;DHT22;6359;51.450;7.346;2022-09-20T03:33:13;7.50;99.90
12588;DHT22;6359;51.450;7.346;2022-09-20T03:35:55;7.50;99.90
12588;DHT22;6359;51.450;7.346;2022-09-20T03:38:38;7.30;99.90
12588;DHT22;6359;51.450;7.346;2022-09-20T03:41:31;7.20;99.90
12588;DHT22;6359;51.450;7.346;2022-09-20T03:44:17;7.00;99.90
12588;DHT22;6359;51.450;7.346;2022-09-20T03:46:53;6.90;99.90
12588;DHT22;6359;51.450;7.346;2022-09-20T03:49:51;6.80;99.90
12588;DHT22;6359;51.450;7.346;2022-09-20T03:52:42;6.70;99.90
12588;DHT22;6359;51.450;7.346;2022-09-20T03:55:36;6.60;99.90
12588;DHT22;6359;51.450;7.346;2022-09-20T03:58:15;6.50;99.90
12588;DHT22;6359;51.450;7.346;2022-09-20T04:00:58;6.40;99.90
12588;DHT22;6359;51.450;7.346;2022-09-20T04:03:37;6.40;99.90
12588;DHT22;6359;51.450;7.346;2022-09-20T04:06:28;6.40;99.90
12588;DHT22;6359;51.450;7.346;2022-09-20T04:09:28;6.30;99.90
12588;DHT22;6359;51.450;7.346;2022-09-20T04:12:03;6.30;99.90
12588;DHT22;6359;51.450;7.346;2022-09-20T04:14:36;6.30;99.90
12588;DHT22;6359;51.450;7.346;2022-09-20T04:17:21;6.30;99.90
12588;DHT22;6359;51.450;7.346;2022-09-20T04:19:56;6.30;99.90
12588;DHT22;6359;51.450;7.346;2022-09-20T04:22:28;6.40;99.90
12588;DHT22;6359;51.450;7.346;2022-09-20T04:24:59;6.40;99.90
12588;DHT22;6359;51.450;7.346;2022-09-20T04:27:32;6.20;99.90
12588;DHT22;6359;51.450;7.346;2022-09-20T04:30:07;6.10;99.90
12588;DHT22;6359;51.450;7.346;2022-09-20T04:32:45;6.10;99.90
12588;DHT22;6359;51.450;7.346;2022-09-20T04:35:22;6.00;99.90
12588;DHT22;6359;51.450;7.346;2022-09-20T04:38:07;6.00;99.90
12588;DHT22;6359;51.450;7.346;2022-09-20T04:40:59;6.00;99.90
12588;DHT22;6359;51.450;7.346;2022-09-20T04:47:01;6.10;99.90
12588;DHT22;6359;51.450;7.346;2022-09-20T04:53:11;6.20;99.90
12588;DHT22;6359;51.450;7.346;2022-09-20T04:55:56;6.30;99.90
12588;DHT22;6359;51.450;7.346;2022-09-20T04:58:38;6.40;99.90
12588;DHT22;6359;51.450;7.346;2022-09-20T05:14:23;6.90;99.90
12588;DHT22;6359;51.450;7.346;2022-09-20T05:17:10;7.00;99.90
12588;DHT22;6359;51.450;7.346;2022-09-20T05:19:50;7.00;99.90
12588;DHT22;6359;51.450;7.346;2022-09-20T05:22:45;7.10;99.90
12588;DHT22;6359;51.450;7.346;2022-09-20T05:25:41;7.10;99.90
12588;DHT22;6359;51.450;7.346;2022-09-20T05:28:18;7.30;99.90
12588;DHT22;6359;51.450;7.346;2022-09-20T05:30:52;7.40;99.90
12588;DHT22;6359;51.450;7.346;2022-09-20T05:33:25;7.50;99.90
12588;DHT22;6359;51.450;7.346;2022-09-20T05:36:03;7.60;99.90
12588;DHT22;6359;51.450;7.346;2022-09-20T05:38:42;7.60;99.90
12588;DHT22;6359;51.450;7.346;2022-09-20T05:41:17;7.70;99.90
12588;DHT22;6359;51.450;7.346;2022-09-20T05:43:53;7.60;99.90
12588;DHT22;6359;51.450;7.346;2022-09-20T05:46:44;7.70;99.90
12588;DHT22;6359;51.450;7.346;2022-09-20T05:49:22;7.70;99.90
12588;DHT22;6359;51.450;7.346;2022-09-20T05:52:04;7.80;99.90
12588;DHT22;6359;51.450;7.346;2022-09-20T05:54:46;7.90;99.90
12588;DHT22;6359;51.450;7.346;2022-09-20T05:57:30;7.90;99.90
12588;DHT22;6359;51.450;7.346;2022-09-20T06:00:02;8.00;99.90
12588;DHT22;6359;51.450;7.346;2022-09-20T06:02:40;8.20;99.90
12588;DHT22;6359;51.450;7.346;2022-09-20T06:05:13;8.20;99.90
12588;DHT22;6359;51.450;7.346;2022-09-20T06:07:52;8.30;99.90
12588;DHT22;6359;51.450;7.346;2022-09-20T06:10:37;8.40;99.90
12588;DHT22;6359;51.450;7.346;2022-09-20T06:13:17;8.60;99.90
12588;DHT22;6359;51.450;7.346;2022-09-20T06:15:53;8.70;99.90
12588;DHT22;6359;51.450;7.346;2022-09-20T06:18:26;8.80;99.90
12588;DHT22;6359;51.450;7.346;2022-09-20T06:21:02;9.10;99.90
12588;DHT22;6359;51.450;7.346;2022-09-20T06:23:33;9.40;99.90
12588;DHT22;6359;51.450;7.346;2022-09-20T06:26:03;9.60;99.90
12588;DHT22;6359;51.450;7.346;2022-09-20T06:28:34;9.70;99.90
12588;DHT22;6359;51.450;7.346;2022-09-20T06:31:04;9.90;99.90
12588;DHT22;6359;51.450;7.346;2022-09-20T06:33:42;10.00;99.90
12588;DHT22;6359;51.450;7.346;2022-09-20T06:36:13;10.10;99.90
12588;DHT22;6359;51.450;7.346;2022-09-20T06:39:05;10.10;99.90
12588;DHT22;6359;51.450;7.346;2022-09-20T06:41:52;10.20;99.90
12588;DHT22;6359;51.450;7.346;2022-09-20T06:44:19;10.30;99.90
12588;DHT22;6359;51.450;7.346;2022-09-20T06:46:46;10.40;99.90
12588;DHT22;6359;51.450;7.346;2022-09-20T06:49:14;10.50;99.90
12588;DHT22;6359;51.450;7.346;2022-09-20T06:51:41;10.60;99.90
12588;DHT22;6359;51.450;7.346;2022-09-20T06:54:15;10.70;99.90
12588;DHT22;6359;51.450;7.346;2022-09-20T06:56:43;10.80;99.90
12588;DHT22;6359;51.450;7.346;2022-09-20T06:59:12;11.00;99.90
12588;DHT22;6359;51.450;7.346;2022-09-20T07:01:40;11.20;99.90
12588;DHT22;6359;51.450;7.346;2022-09-20T07:04:07;11.50;99.90
12588;DHT22;6359;51.450;7.346;2022-09-20T07:06:36;11.70;99.90
12588;DHT22;6359;51.450;7.346;2022-09-20T07:09:03;11.70;99.90
12588;DHT22;6359;51.450;7.346;2022-09-20T07:11:31;11.70;99.90
12588;DHT22;6359;51.450;7.346;2022-09-20T07:13:58;11.60;99.90
12588;DHT22;6359;51.450;7.346;2022-09-20T07:16:25;11.50;99.90
12588;DHT22;6359;51.450;7.346;2022-09-20T07:18:52;11.50;99.90
12588;DHT22;6359;51.450;7.346;2022-09-20T07:21:20;11.60;99.90
12588;DHT22;6359;51.450;7.346;2022-09-20T07:23:48;11.60;99.90
12588;DHT22;6359;51.450;7.346;2022-09-20T07:26:18;11.60;99.90
12588;DHT22;6359;51.450;7.346;2022-09-20T07:28:45;11.70;99.90
12588;DHT22;6359;51.450;7.346;2022-09-20T07:31:12;11.70;99.90
12588;DHT22;6359;51.450;7.346;2022-09-20T07:33:39;11.80;99.90
12588;DHT22;6359;51.450;7.346;2022-09-20T07:36:06;12.00;99.90
12588;DHT22;6359;51.450;7.346;2022-09-20T07:38:34;12.10;99.90
12588;DHT22;6359;51.450;7.346;2022-09-20T07:41:03;12.30;99.90
12588;DHT22;6359;51.450;7.346;2022-09-20T07:43:30;12.80;99.90
12588;DHT22;6359;51.450;7.346;2022-09-20T07:45:57;13.10;99.90
12588;DHT22;6359;51.450;7.346;2022-09-20T07:48:26;13.10;99.90
12588;DHT22;6359;51.450;7.346;2022-09-20T07:50:54;13.10;99.90
12588;DHT22;6359;51.450;7.346;2022-09-20T07:53:21;13.30;99.90
12588;DHT22;6359;51.450;7.346;2022-09-20T07:55:56;13.70;99.90
12588;DHT22;6359;51.450;7.346;2022-09-20T07:58:25;15.00;99.90
12588;DHT22;6359;51.450;7.346;2022-09-20T08:00:52;15.40;99.90
12588;DHT22;6359;51.450;7.346;2022-09-20T08:03:19;15.90;99.90
12588;DHT22;6359;51.450;7.346;2022-09-20T08:05:47;15.80;99.90
12588;DHT22;6359;51.450;7.346;2022-09-20T08:08:14;15.60;99.90
12588;DHT22;6359;51.450;7.346;2022-09-20T08:10:42;15.50;99.90
12588;DHT22;6359;51.450;7.346;2022-09-20T08:13:11;15.20;99.90
12588;DHT22;6359;51.450;7.346;2022-09-20T08:15:39;14.80;99.90
12588;DHT22;6359;51.450;7.346;2022-09-20T08:18:07;14.40;99.90
12588;DHT22;6359;51.450;7.346;2022-09-20T08:20:36;14.40;99.90
12588;DHT22;6359;51.450;7.346;2022-09-20T08:23:03;14.70;99.90
12588;DHT22;6359;51.450;7.346;2022-09-20T08:25:30;15.10;99.90
12588;DHT22;6359;51.450;7.346;2022-09-20T08:27:57;15.50;99.90
12588;DHT22;6359;51.450;7.346;2022-09-20T08:30:24;15.20;99.90
12588;DHT22;6359;51.450;7.346;2022-09-20T08:32:52;15.10;99.90
12588;DHT22;6359;51.450;7.346;2022-09-20T08:35:20;14.70;99.90
12588;DHT22;6359;51.450;7.346;2022-09-20T08:37:50;14.50;99.90
12588;DHT22;6359;51.450;7.346;2022-09-20T08:40:20;14.60;99.90
12588;DHT22;6359;51.450;7.346;2022-09-20T08:42:49;14.70;99.90
12588;DHT22;6359;51.450;7.346;2022-09-20T08:45:20;14.70;99.90
12588;DHT22;6359;51.450;7.346;2022-09-20T08:47:50;14.90;99.90
12588;DHT22;6359;51.450;7.346;2022-09-20T08:50:20;14.90;99.90
12588;DHT22;6359;51.450;7.346;2022-09-20T08:52:51;15.00;99.90
12588;DHT22;6359;51.450;7.346;2022-09-20T08:55:21;14.90;99.90
12588;DHT22;6359;51.450;7.346;2022-09-20T08:57:50;14.90;99.90
12588;DHT22;6359;51.450;7.346;2022-09-20T09:00:20;14.70;99.90
12588;DHT22;6359;51.450;7.346;2022-09-20T09:02:49;14.80;99.90
12588;DHT22;6359;51.450;7.346;2022-09-20T09:05:29;14.70;99.90
12588;DHT22;6359;51.450;7.346;2022-09-20T09:07:57;14.80;99.90
12588;DHT22;6359;51.450;7.346;2022-09-20T09:10:27;14.70;99.90
12588;DHT22;6359;51.450;7.346;2022-09-20T09:12:56;14.60;99.90
12588;DHT22;6359;51.450;7.346;2022-09-20T09:15:27;14.60;99.90
12588;DHT22;6359;51.450;7.346;2022-09-20T09:17:56;14.50;99.90
12588;DHT22;6359;51.450;7.346;2022-09-20T09:20:25;14.50;99.90
12588;DHT22;6359;51.450;7.346;2022-09-20T09:23:00;14.40;99.90
12588;DHT22;6359;51.450;7.346;2022-09-20T09:25:28;14.40;99.90
12588;DHT22;6359;51.450;7.346;2022-09-20T09:28:01;14.60;99.90
12588;DHT22;6359;51.450;7.346;2022-09-20T09:30:32;14.80;99.90
12588;DHT22;6359;51.450;7.346;2022-09-20T09:33:30;15.00;99.90
12588;DHT22;6359;51.450;7.346;2022-09-20T09:36:04;15.10;99.90
12588;DHT22;6359;51.450;7.346;2022-09-20T09:38:33;15.30;99.90
12588;DHT22;6359;51.450;7.346;2022-09-20T09:41:03;15.40;99.90
12588;DHT22;6359;51.450;7.346;2022-09-20T09:43:33;15.50;99.90
12588;DHT22;6359;51.450;7.346;2022-09-20T09:46:16;15.10;99.90
12588;DHT22;6359;51.450;7.346;2022-09-20T09:48:46;14.90;99.90
12588;DHT22;6359;51.450;7.346;2022-09-20T09:51:17;14.90;99.90
12588;DHT22;6359;51.450;7.346;2022-09-20T09:53:46;15.30;99.90
12588;DHT22;6359;51.450;7.346;2022-09-20T09:56:24;15.80;99.90
12588;DHT22;6359;51.450;7.346;2022-09-20T09:59:22;16.30;99.90
12588;DHT22;6359;51.450;7.346;2022-09-20T10:02:00;17.00;99.90
12588;DHT22;6359;51.450;7.346;2022-09-20T10:04:34;17.10;99.90
12588;DHT22;6359;51.450;7.346;2022-09-20T10:07:08;17.10;99.90
12588;DHT22;6359;51.450;7.346;2022-09-20T10:09:54;17.30;99.90
12588;DHT22;6359;51.450;7.346;2022-09-20T10:12:44;17.40;99.90
12588;DHT22;6359;51.450;7.346;2022-09-20T10:15:26;17.70;99.90
12588;DHT22;6359;51.450;7.346;2022-09-20T10:18:17;18.40;99.90
12588;DHT22;6359;51.450;7.346;2022-09-20T10:20:58;18.40;99.90
12588;DHT22;6359;51.450;7.346;2022-09-20T10:23:41;18.70;99.90
12588;DHT22;6359;51.450;7.346;2022-09-20T10:26:20;19.70;99.90
12588;DHT22;6359;51.450;7.346;2022-09-20T10:28:56;20.10;99.90
12588;DHT22;6359;51.450;7.346;2022-09-20T10:31:41;20.50;99.90
12588;DHT22;6359;51.450;7.346;2022-09-20T10:37:20;19.00;99.90
12588;DHT22;6359;51.450;7.346;2022-09-20T10:40:01;18.70;99.90
12588;DHT22;6359;51.450;7.346;2022-09-20T10:42:36;18.20;99.90
12588;DHT22;6359;51.450;7.346;2022-09-20T10:45:27;17.70;99.90
12588;DHT22;6359;51.450;7.346;2022-09-20T10:48:02;17.20;99.90
12588;DHT22;6359;51.450;7.346;2022-09-20T10:50:37;16.90;99.90
12588;DHT22;6359;51.450;7.346;2022-09-20T10:53:19;16.30;99.90
12588;DHT22;6359;51.450;7.346;2022-09-20T10:56:04;16.00;99.90
12588;DHT22;6359;51.450;7.346;2022-09-20T11:01:41;15.80;99.90
12588;DHT22;6359;51.450;7.346;2022-09-20T11:07:09;16.00;99.90
12588;DHT22;6359;51.450;7.346;2022-09-20T11:09:42;16.20;99.90
12588;DHT22;6359;51.450;7.346;2022-09-20T11:12:19;16.70;99.90
12588;DHT22;6359;51.450;7.346;2022-09-20T11:14:54;16.60;99.90
12588;DHT22;6359;51.450;7.346;2022-09-20T11:17:24;16.70;99.90
12588;DHT22;6359;51.450;7.346;2022-09-20T11:19:59;16.90;99.90
12588;DHT22;6359;51.450;7.346;2022-09-20T11:22:32;17.20;99.90
12588;DHT22;6359;51.450;7.346;2022-09-20T11:25:10;17.20;99.90
12588;DHT22;6359;51.450;7.346;2022-09-20T11:27:45;17.20;99.90
12588;DHT22;6359;51.450;7.346;2022-09-20T11:30:18;18.00;99.90
12588;DHT22;6359;51.450;7.346;2022-09-20T11:32:52;18.70;99.90
12588;DHT22;6359;51.450;7.346;2022-09-20T11:35:29;18.30;99.90
12588;DHT22;6359;51.450;7.346;2022-09-20T11:38:08;18.50;99.90
12588;DHT22;6359;51.450;7.346;2022-09-20T11:40:42;18.90;99.90
12588;DHT22;6359;51.450;7.346;2022-09-20T11:43:15;19.10;99.90
12588;DHT22;6359;51.450;7.346;2022-09-20T11:45:47;19.00;99.90
12588;DHT22;6359;51.450;7.346;2022-09-20T11:48:22;19.00;99.90
12588;DHT22;6359;51.450;7.346;2022-09-20T11:51:12;18.50;99.90
12588;DHT22;6359;51.450;7.346;2022-09-20T11:53:58;18.50;99.90
12588;DHT22;6359;51.450;7.346;2022-09-20T11:56:33;18.20;99.90
12588;DHT22;6359;51.450;7.346;2022-09-20T11:59:05;17.90;99.90
12588;DHT22;6359;51.450;7.346;2022-09-20T12:01:37;17.70;99.90
12588;DHT22;6359;51.450;7.346;2022-09-20T12:04:09;17.60;99.90
12588;DHT22;6359;51.450;7.346;2022-09-20T12:06:58;17.50;99.90
12588;DHT22;6359;51.450;7.346;2022-09-20T12:09:35;17.40;99.90
12588;DHT22;6359;51.450;7.346;2022-09-20T12:12:36;17.60;99.90
12588;DHT22;6359;51.450;7.346;2022-09-20T12:15:27;17.80;99.90
12588;DHT22;6359;51.450;7.346;2022-09-20T12:18:11;18.00;99.90
12588;DHT22;6359;51.450;7.346;2022-09-20T12:24:15;17.80;99.90
12588;DHT22;6359;51.450;7.346;2022-09-20T12:26:47;17.80;99.90
12588;DHT22;6359;51.450;7.346;2022-09-20T12:32:59;18.30;99.90
12588;DHT22;6359;51.450;7.346;2022-09-20T12:39:00;19.00;99.90
12588;DHT22;6359;51.450;7.346;2022-09-20T12:41:47;18.70;99.90
12588;DHT22;6359;51.450;7.346;2022-09-20T12:44:25;18.30;99.90
12588;DHT22;6359;51.450;7.346;2022-09-20T12:46:56;18.40;99.90
12588;DHT22;6359;51.450;7.346;2022-09-20T12:49:51;18.50;99.90
12588;DHT22;6359;51.450;7.346;2022-09-20T12:52:46;18.40;99.90
12588;DHT22;6359;51.450;7.346;2022-09-20T12:55:45;18.10;99.90
12588;DHT22;6359;51.450;7.346;2022-09-20T12:58:39;18.30;99.90
12588;DHT22;6359;51.450;7.346;2022-09-20T13:01:36;18.70;99.90
12588;DHT22;6359;51.450;7.346;2022-09-20T13:07:46;19.20;99.90
12588;DHT22;6359;51.450;7.346;2022-09-20T13:13:17;19.70;99.90
12588;DHT22;6359;51.450;7.346;2022-09-20T13:15:50;20.00;99.90
12588;DHT22;6359;51.450;7.346;2022-09-20T13:18:20;20.10;99.90
12588;DHT22;6359;51.450;7.346;2022-09-20T13:20:53;19.50;99.90
12588;DHT22;6359;51.450;7.346;2022-09-20T13:23:30;19.10;99.90
12588;DHT22;6359;51.450;7.346;2022-09-20T13:26:00;18.40;99.90
12588;DHT22;6359;51.450;7.346;2022-09-20T13:28:37;17.90;99.90
12588;DHT22;6359;51.450;7.346;2022-09-20T13:31:28;17.40;99.90
12588;DHT22;6359;51.450;7.346;2022-09-20T13:34:17;17.10;99.90
12588;DHT22;6359;51.450;7.346;2022-09-20T13:36:45;16.90;99.90
12588;DHT22;6359;51.450;7.346;2022-09-20T13:39:25;16.70;99.90
12588;DHT22;6359;51.450;7.346;2022-09-20T13:41:52;16.40;99.90
12588;DHT22;6359;51.450;7.346;2022-09-20T13:44:20;16.30;99.90
12588;DHT22;6359;51.450;7.346;2022-09-20T13:46:50;16.10;99.90
12588;DHT22;6359;51.450;7.346;2022-09-20T13:49:18;15.80;99.90
12588;DHT22;6359;51.450;7.346;2022-09-20T13:51:48;15.70;99.90
12588;DHT22;6359;51.450;7.346;2022-09-20T13:54:23;15.70;99.90
12588;DHT22;6359;51.450;7.346;2022-09-20T13:56:55;15.70;99.90
12588;DHT22;6359;51.450;7.346;2022-09-20T13:59:31;15.60;99.90
12588;DHT22;6359;51.450;7.346;2022-09-20T14:01:59;15.50;99.90
12588;DHT22;6359;51.450;7.346;2022-09-20T14:04:28;15.50;99.90
12588;DHT22;6359;51.450;7.346;2022-09-20T14:06:57;15.40;99.90
12588;DHT22;6359;51.450;7.346;2022-09-20T14:09:27;15.30;99.90
12588;DHT22;6359;51.450;7.346;2022-09-20T14:11:57;15.30;99.90
12588;DHT22;6359;51.450;7.346;2022-09-20T14:14:25;15.20;99.90
12588;DHT22;6359;51.450;7.346;2022-09-20T14:16:54;15.10;99.90
12588;DHT22;6359;51.450;7.346;2022-09-20T14:19:27;15.00;99.90
12588;DHT22;6359;51.450;7.346;2022-09-20T14:21:57;14.90;99.90
12588;DHT22;6359;51.450;7.346;2022-09-20T14:24:27;14.90;99.90
12588;DHT22;6359;51.450;7.346;2022-09-20T14:27:19;15.00;99.90
12588;DHT22;6359;51.450;7.346;2022-09-20T14:29:47;14.90;99.90
12588;DHT22;6359;51.450;7.346;2022-09-20T14:32:31;14.90;99.90
12588;DHT22;6359;51.450;7.346;2022-09-20T14:35:02;14.90;99.90
12588;DHT22;6359;51.450;7.346;2022-09-20T14:37:32;15.00;99.90
12588;DHT22;6359;51.450;7.346;2022-09-20T14:40:02;15.00;99.90
12588;DHT22;6359;51.450;7.346;2022-09-20T14:42:35;14.90;99.90
12588;DHT22;6359;51.450;7.346;2022-09-20T14:45:04;15.10;99.90
12588;DHT22;6359;51.450;7.346;2022-09-20T14:47:36;15.50;99.90
12588;DHT22;6359;51.450;7.346;2022-09-20T14:50:04;15.70;99.90
12588;DHT22;6359;51.450;7.346;2022-09-20T14:52:58;15.80;99.90
12588;DHT22;6359;51.450;7.346;2022-09-20T14:55:26;15.70;99.90
12588;DHT22;6359;51.450;7.346;2022-09-20T14:58:01;15.70;99.90
12588;DHT22;6359;51.450;7.346;2022-09-20T15:00:29;15.80;99.90
12588;DHT22;6359;51.450;7.346;2022-09-20T15:03:12;15.80;99.90
12588;DHT22;6359;51.450;7.346;2022-09-20T15:05:42;15.70;99.90
12588;DHT22;6359;51.450;7.346;2022-09-20T15:08:11;15.50;99.90
12588;DHT22;6359;51.450;7.346;2022-09-20T15:10:38;15.30;99.90
12588;DHT22;6359;51.450;7.346;2022-09-20T15:13:09;15.40;99.90
12588;DHT22;6359;51.450;7.346;2022-09-20T15:15:36;15.30;99.90
12588;DHT22;6359;51.450;7.346;2022-09-20T15:18:04;15.30;99.90
12588;DHT22;6359;51.450;7.346;2022-09-20T15:20:32;15.30;99.90
12588;DHT22;6359;51.450;7.346;2022-09-20T15:22:59;15.30;99.90
12588;DHT22;6359;51.450;7.346;2022-09-20T15:25:27;15.40;99.90
12588;DHT22;6359;51.450;7.346;2022-09-20T15:27:54;15.40;99.90
12588;DHT22;6359;51.450;7.346;2022-09-20T15:30:23;15.60;99.90
12588;DHT22;6359;51.450;7.346;2022-09-20T15:32:51;15.50;99.90
12588;DHT22;6359;51.450;7.346;2022-09-20T15:35:18;15.40;99.90
12588;DHT22;6359;51.450;7.346;2022-09-20T15:37:45;15.30;99.90
12588;DHT22;6359;51.450;7.346;2022-09-20T15:40:12;15.20;99.90
12588;DHT22;6359;51.450;7.346;2022-09-20T15:42:40;15.30;99.90
12588;DHT22;6359;51.450;7.346;2022-09-20T15:45:09;15.20;99.90
12588;DHT22;6359;51.450;7.346;2022-09-20T15:47:38;15.10;99.90
12588;DHT22;6359;51.450;7.346;2022-09-20T15:50:06;15.10;99.90
12588;DHT22;6359;51.450;7.346;2022-09-20T15:52:34;14.90;99.90
12588;DHT22;6359;51.450;7.346;2022-09-20T15:55:02;14.70;99.90
12588;DHT22;6359;51.450;7.346;2022-09-20T15:57:29;14.50;99.90
12588;DHT22;6359;51.450;7.346;2022-09-20T15:59:56;14.40;99.90
12588;DHT22;6359;51.450;7.346;2022-09-20T16:02:24;14.30;99.90
12588;DHT22;6359;51.450;7.346;2022-09-20T16:04:53;14.20;99.90
12588;DHT22;6359;51.450;7.346;2022-09-20T16:07:20;14.10;99.90
12588;DHT22;6359;51.450;7.346;2022-09-20T16:09:50;14.00;99.90
12588;DHT22;6359;51.450;7.346;2022-09-20T16:12:17;13.80;99.90
12588;DHT22;6359;51.450;7.346;2022-09-20T16:14:44;13.80;99.90
12588;DHT22;6359;51.450;7.346;2022-09-20T16:17:11;13.70;99.90
12588;DHT22;6359;51.450;7.346;2022-09-20T16:19:38;13.60;99.90
12588;DHT22;6359;51.450;7.346;2022-09-20T16:22:06;13.60;99.90
12588;DHT22;6359;51.450;7.346;2022-09-20T16:24:35;13.50;99.90
12588;DHT22;6359;51.450;7.346;2022-09-20T16:27:05;13.50;99.90
12588;DHT22;6359;51.450;7.346;2022-09-20T16:29:33;13.40;99.90
12588;DHT22;6359;51.450;7.346;2022-09-20T16:32:01;13.30;99.90
12588;DHT22;6359;51.450;7.346;2022-09-20T16:34:31;13.30;99.90
12588;DHT22;6359;51.450;7.346;2022-09-20T16:37:00;13.30;99.90
12588;DHT22;6359;51.450;7.346;2022-09-20T16:39:29;13.40;99.90
12588;DHT22;6359;51.450;7.346;2022-09-20T16:41:57;13.50;99.90
12588;DHT22;6359;51.450;7.346;2022-09-20T16:44:28;13.60;99.90
12588;DHT22;6359;51.450;7.346;2022-09-20T16:46:55;13.60;99.90
12588;DHT22;6359;51.450;7.346;2022-09-20T16:49:22;13.60;99.90
12588;DHT22;6359;51.450;7.346;2022-09-20T16:51:51;13.60;99.90
12588;DHT22;6359;51.450;7.346;2022-09-20T16:54:18;13.50;99.90
12588;DHT22;6359;51.450;7.346;2022-09-20T16:56:48;13.50;99.90
12588;DHT22;6359;51.450;7.346;2022-09-20T16:59:17;13.40;99.90
12588;DHT22;6359;51.450;7.346;2022-09-20T17:01:46;13.40;99.90
12588;DHT22;6359;51.450;7.346;2022-09-20T17:04:14;13.40;99.90
12588;DHT22;6359;51.450;7.346;2022-09-20T17:06:43;13.50;99.90
12588;DHT22;6359;51.450;7.346;2022-09-20T17:09:11;13.50;99.90
12588;DHT22;6359;51.450;7.346;2022-09-20T17:11:39;13.50;99.90
12588;DHT22;6359;51.450;7.346;2022-09-20T17:14:09;13.40;99.90
12588;DHT22;6359;51.450;7.346;2022-09-20T17:16:38;13.40;99.90
12588;DHT22;6359;51.450;7.346;2022-09-20T17:19:06;13.40;99.90
12588;DHT22;6359;51.450;7.346;2022-09-20T17:21:35;13.30;99.90
12588;DHT22;6359;51.450;7.346;2022-09-20T17:24:04;13.20;99.90
12588;DHT22;6359;51.450;7.346;2022-09-20T17:26:33;13.20;99.90
12588;DHT22;6359;51.450;7.346;2022-09-20T17:29:03;13.10;99.90
12588;DHT22;6359;51.450;7.346;2022-09-20T17:31:34;13.00;99.90